createdAt,value
2018-05-12T00:00:10.394Z,97517.53
2018-05-12T00:02:37.950Z,97528.86
2018-05-12T00:05:05.518Z,97532.73
2018-05-12T00:07:33.113Z,97531.69
2018-05-12T00:10:00.669Z,97522.81
2018-05-12T00:12:28.190Z,97529.48
2018-05-12T00:14:55.834Z,97526.66
2018-05-12T00:17:23.407Z,97525.42
2018-05-12T00:19:50.970Z,97527.91
2018-05-12T00:22:18.551Z,97524.20
2018-05-12T00:24:46.119Z,97523.75
2018-05-12T00:27:13.668Z,97524.84
2018-05-12T00:29:41.210Z,97517.73
2018-05-12T00:32:08.721Z,97520.22
2018-05-12T00:34:36.300Z,97517.63
2018-05-12T00:37:03.873Z,97517.42
2018-05-12T00:39:31.414Z,97512.48
2018-05-12T00:41:58.980Z,97510.31
2018-05-12T00:44:26.555Z,97508.05
2018-05-12T00:46:54.117Z,97447.41
2018-05-12T00:49:21.709Z,97511.11
2018-05-12T00:51:49.254Z,97504.78
2018-05-12T00:54:16.776Z,97506.95
2018-05-12T00:56:44.362Z,97502.58
2018-05-12T00:59:11.873Z,97504.17
2018-05-12T01:01:39.394Z,97509.20
2018-05-12T01:04:07.035Z,97503.77
2018-05-12T01:06:34.607Z,97507.17
2018-05-12T01:09:02.158Z,97509.20
2018-05-12T01:11:29.786Z,97513.59
2018-05-12T01:13:57.350Z,97516.03
2018-05-12T01:16:25.934Z,97513.27
2018-05-12T01:18:53.556Z,97510.07
2018-05-12T01:21:21.128Z,97515.39
2018-05-12T01:23:48.685Z,97506.48
2018-05-12T01:26:16.250Z,97512.16
2018-05-12T01:28:43.770Z,97485.20
2018-05-12T01:31:11.295Z,97508.13
2018-05-12T01:33:38.845Z,97507.55
2018-05-12T01:36:06.350Z,97510.98
2018-05-12T01:38:33.883Z,97507.31
2018-05-12T01:41:01.443Z,97506.70
2018-05-12T01:43:29.014Z,97502.30
2018-05-12T01:45:56.607Z,97498.59
2018-05-12T01:48:24.390Z,97495.42
2018-05-12T01:50:51.929Z,97491.92
2018-05-12T01:53:19.506Z,97497.55
2018-05-12T01:55:47.081Z,97513.14
2018-05-12T01:58:14.652Z,97511.59
2018-05-12T02:00:42.183Z,97510.91
2018-05-12T02:03:09.835Z,97508.84
2018-05-12T02:05:37.354Z,97504.68
2018-05-12T02:08:04.900Z,97513.71
2018-05-12T02:10:32.466Z,97506.11
2018-05-12T02:13:00.070Z,97511.25
2018-05-12T02:15:27.673Z,97512.83
2018-05-12T02:17:55.269Z,97522.28
2018-05-12T02:20:22.798Z,97517.89
2018-05-12T02:22:50.363Z,97515.02
2018-05-12T02:25:18.023Z,97519.34
2018-05-12T02:27:45.589Z,97517.35
2018-05-12T02:30:13.123Z,97487.53
2018-05-12T02:32:40.701Z,97516.36
2018-05-12T02:35:08.218Z,97524.41
2018-05-12T02:37:35.815Z,97524.30
2018-05-12T02:40:03.981Z,97521.94
2018-05-12T02:42:31.491Z,97521.79
2018-05-12T02:44:59.637Z,97523.56
2018-05-12T02:47:27.202Z,97520.27
2018-05-12T02:49:54.709Z,97518.36
2018-05-12T02:52:22.258Z,97517.88
2018-05-12T02:54:49.817Z,97518.09
2018-05-12T02:57:17.399Z,97523.89
2018-05-12T02:59:44.934Z,97522.94
2018-05-12T03:02:12.474Z,97520.61
2018-05-12T03:04:40.020Z,97527.77
2018-05-12T03:07:07.559Z,97516.40
2018-05-12T03:09:35.103Z,97520.94
2018-05-12T03:12:02.614Z,97519.20
2018-05-12T03:14:30.134Z,97519.20
2018-05-12T03:16:57.716Z,97522.30
2018-05-12T03:19:25.259Z,97522.27
2018-05-12T03:21:52.820Z,97526.07
2018-05-12T03:24:20.713Z,97526.98
2018-05-12T03:26:48.240Z,97529.49
2018-05-12T03:29:15.812Z,97527.02
2018-05-12T03:31:43.379Z,97524.70
2018-05-12T03:34:10.919Z,97524.73
2018-05-12T03:36:38.442Z,97527.36
2018-05-12T03:39:06.011Z,97528.61
2018-05-12T03:41:33.572Z,97526.28
2018-05-12T03:44:01.086Z,97529.13
2018-05-12T03:46:28.655Z,97534.08
2018-05-12T03:48:56.195Z,97528.95
2018-05-12T03:51:23.777Z,97528.48
2018-05-12T03:53:51.353Z,97532.53
2018-05-12T03:56:18.882Z,97529.27
2018-05-12T03:58:46.435Z,97531.88
2018-05-12T04:01:14.032Z,97527.89
2018-05-12T04:03:41.547Z,97522.99
2018-05-12T04:06:20.930Z,97520.19
2018-05-12T04:09:00.180Z,97518.63
2018-05-12T04:11:40.441Z,97520.19
2018-05-12T04:14:08.004Z,97512.26
2018-05-12T04:16:36.314Z,97505.73
2018-05-12T04:19:03.872Z,97519.91
2018-05-12T04:21:31.386Z,97515.02
2018-05-12T04:23:58.918Z,97518.00
2018-05-12T04:26:26.493Z,97510.53
2018-05-12T04:28:54.012Z,97504.91
2018-05-12T04:31:21.540Z,97506.22
2018-05-12T04:33:49.097Z,97509.63
2018-05-12T04:36:16.635Z,97516.53
2018-05-12T04:38:44.175Z,97512.16
2018-05-12T04:41:12.617Z,97516.37
2018-05-12T04:43:40.183Z,97515.80
2018-05-12T04:46:07.733Z,97522.92
2018-05-12T04:48:37.785Z,97520.80
2018-05-12T04:51:05.302Z,97520.92
2018-05-12T04:53:33.261Z,97523.34
2018-05-12T04:56:00.826Z,97524.34
2018-05-12T04:58:28.375Z,97534.22
2018-05-12T05:00:55.946Z,97529.86
2018-05-12T05:03:23.522Z,97517.36
2018-05-12T05:05:51.170Z,97534.11
2018-05-12T05:08:18.709Z,97534.22
2018-05-12T05:10:46.245Z,97532.80
2018-05-12T05:13:13.763Z,97525.47
2018-05-12T05:15:41.264Z,97523.65
2018-05-12T05:18:08.807Z,97518.58
2018-05-12T05:20:36.320Z,97519.75
2018-05-12T05:23:03.830Z,97518.72
2018-05-12T05:25:31.403Z,97524.47
2018-05-12T05:27:58.917Z,97530.22
2018-05-12T05:30:26.429Z,97532.91
2018-05-12T05:32:53.969Z,97539.70
2018-05-12T05:35:21.475Z,97540.33
2018-05-12T05:37:49.021Z,97541.17
2018-05-12T05:40:16.563Z,97547.59
2018-05-12T05:42:44.083Z,97548.44
2018-05-12T05:45:11.647Z,97546.67
2018-05-12T05:47:39.247Z,97539.65
2018-05-12T05:50:06.980Z,97540.55
2018-05-12T05:52:34.501Z,97530.35
2018-05-12T05:55:02.088Z,97543.48
2018-05-12T05:57:30.268Z,97542.74
2018-05-12T05:59:58.170Z,97537.80
2018-05-12T06:02:25.803Z,97540.33
2018-05-12T06:04:53.418Z,97535.93
2018-05-12T06:07:20.965Z,97539.42
2018-05-12T06:09:48.544Z,97531.94
2018-05-12T06:12:16.150Z,97535.16
2018-05-12T06:14:43.736Z,97529.78
2018-05-12T06:17:11.402Z,97523.67
2018-05-12T06:19:38.943Z,97525.48
2018-05-12T06:22:06.458Z,97521.76
2018-05-12T06:24:34.038Z,97526.11
2018-05-12T06:27:01.612Z,97518.66
2018-05-12T06:29:29.163Z,97528.05
2018-05-12T06:31:56.768Z,97533.77
2018-05-12T06:34:24.405Z,97531.23
2018-05-12T06:36:51.934Z,97538.38
2018-05-12T06:39:19.583Z,97538.67
2018-05-12T06:41:47.112Z,97535.04
2018-05-12T06:44:14.683Z,97531.03
2018-05-12T06:46:42.279Z,97536.56
2018-05-12T06:49:09.819Z,97536.92
2018-05-12T06:51:37.377Z,97540.09
2018-05-12T06:54:04.965Z,97527.89
2018-05-12T06:56:32.577Z,97539.55
2018-05-12T06:59:00.136Z,97516.30
2018-05-12T07:01:27.724Z,97519.27
2018-05-12T07:03:55.251Z,97514.42
2018-05-12T07:06:22.781Z,97519.44
2018-05-12T07:08:50.341Z,97514.72
2018-05-12T07:11:17.942Z,97499.30
2018-05-12T07:13:45.482Z,97508.70
2018-05-12T07:16:13.013Z,97485.60
2018-05-12T07:18:40.600Z,97484.97
2018-05-12T07:21:08.127Z,97489.30
2018-05-12T07:23:36.428Z,97481.59
2018-05-12T07:26:03.934Z,97479.86
2018-05-12T07:28:31.446Z,97480.30
2018-05-12T07:30:59.023Z,97485.66
2018-05-12T07:33:26.585Z,97485.17
2018-05-12T07:35:54.150Z,97475.33
2018-05-12T07:38:21.778Z,97472.63
2018-05-12T07:40:49.321Z,97480.30
2018-05-12T07:43:16.844Z,97478.14
2018-05-12T07:45:49.410Z,97480.69
2018-05-12T07:48:19.392Z,97478.25
2018-05-12T07:50:46.998Z,97471.83
2018-05-12T07:53:14.511Z,97466.35
2018-05-12T07:55:42.032Z,97460.98
2018-05-12T07:58:09.592Z,97459.29
2018-05-12T08:00:37.109Z,97311.13
2018-05-12T08:03:04.614Z,97453.97
2018-05-12T08:05:32.161Z,97451.62
2018-05-12T08:07:59.687Z,97445.98
2018-05-12T08:10:27.215Z,97443.50
2018-05-12T08:12:54.843Z,97448.27
2018-05-12T08:15:22.335Z,97444.05
2018-05-12T08:17:49.869Z,97479.02
2018-05-12T08:20:17.452Z,97446.64
2018-05-12T08:22:45.091Z,97453.51
2018-05-12T08:25:12.657Z,97449.29
2018-05-12T08:27:40.205Z,97439.92
2018-05-12T08:30:07.713Z,97441.38
2018-05-12T08:32:35.211Z,97444.83
2018-05-12T08:35:02.764Z,97444.77
2018-05-12T08:37:30.303Z,97436.05
2018-05-12T08:39:57.867Z,97431.53
2018-05-12T08:42:25.452Z,97424.33
2018-05-12T08:44:52.989Z,97423.14
2018-05-12T08:47:20.514Z,97418.08
2018-05-12T08:49:48.186Z,97417.30
2018-05-12T08:52:15.726Z,97427.50
2018-05-12T08:54:43.283Z,97414.11
2018-05-12T08:57:10.834Z,97426.88
2018-05-12T08:59:38.388Z,97423.54
2018-05-12T09:02:05.911Z,97428.26
2018-05-12T09:04:33.491Z,97409.87
2018-05-12T09:07:01.038Z,97411.97
2018-05-12T09:09:28.585Z,97415.70
2018-05-12T09:11:56.145Z,97403.93
2018-05-12T09:14:23.794Z,97415.20
2018-05-12T09:16:52.298Z,97413.19
2018-05-12T09:19:20.097Z,97400.73
2018-05-12T09:21:47.614Z,97394.00
2018-05-12T09:24:15.159Z,97392.41
2018-05-12T09:26:42.725Z,97406.58
2018-05-12T09:29:10.260Z,97399.51
2018-05-12T09:31:37.802Z,97392.55
2018-05-12T09:34:05.367Z,97395.05
2018-05-12T09:36:32.904Z,97397.57
2018-05-12T09:39:00.441Z,97389.69
2018-05-12T09:41:30.587Z,97393.06
2018-05-12T09:43:58.707Z,97389.87
2018-05-12T09:46:26.377Z,97391.66
2018-05-12T09:48:54.014Z,97388.09
2018-05-12T09:51:21.577Z,97393.29
2018-05-12T09:53:49.246Z,97389.42
2018-05-12T09:56:16.802Z,97385.21
2018-05-12T09:58:44.344Z,97388.77
2018-05-12T10:01:11.935Z,97383.52
2018-05-12T10:03:39.641Z,97376.42
2018-05-12T10:06:07.291Z,97374.77
2018-05-12T10:08:34.828Z,97371.86
2018-05-12T10:11:02.465Z,97363.97
2018-05-12T10:13:30.055Z,97358.94
2018-05-12T10:15:57.574Z,97366.16
2018-05-12T10:18:25.143Z,97348.68
2018-05-12T10:20:52.646Z,97344.14
2018-05-12T10:23:20.166Z,97344.22
2018-05-12T10:25:47.707Z,97345.91
2018-05-12T10:28:15.284Z,97347.23
2018-05-12T10:30:42.803Z,97337.95
2018-05-12T10:33:10.340Z,97345.32
2018-05-12T10:35:37.878Z,97343.42
2018-05-12T10:38:05.435Z,97331.47
2018-05-12T10:40:32.994Z,97335.33
2018-05-12T10:43:00.566Z,97336.94
2018-05-12T10:45:28.223Z,97333.95
2018-05-12T10:47:55.775Z,97327.00
2018-05-12T10:50:23.357Z,97324.27
2018-05-12T10:52:50.862Z,97325.41
2018-05-12T10:55:18.430Z,97317.29
2018-05-12T10:57:46.014Z,97314.35
2018-05-12T11:00:13.556Z,97311.63
2018-05-12T11:02:41.176Z,97294.08
2018-05-12T11:05:08.746Z,97294.20
2018-05-12T11:07:36.267Z,97298.86
2018-05-12T11:10:03.908Z,97299.93
2018-05-12T11:12:31.474Z,97298.78
2018-05-12T11:14:59.026Z,97285.11
2018-05-12T11:17:26.586Z,97282.22
2018-05-12T11:19:54.162Z,97280.59
2018-05-12T11:22:21.702Z,97289.36
2018-05-12T11:24:50.094Z,97278.16
2018-05-12T11:27:17.613Z,97276.38
2018-05-12T11:29:45.133Z,97276.11
2018-05-12T11:32:12.808Z,97271.47
2018-05-12T11:34:40.425Z,97259.17
2018-05-12T11:37:07.995Z,97263.25
2018-05-12T11:39:35.652Z,97256.22
2018-05-12T11:42:03.214Z,97254.48
2018-05-12T11:44:30.872Z,97257.92
2018-05-12T11:46:58.503Z,97249.34
2018-05-12T11:49:26.096Z,97247.59
2018-05-12T11:51:53.662Z,97246.76
2018-05-12T11:54:21.206Z,97253.77
2018-05-12T11:56:48.753Z,97247.29
2018-05-12T11:59:16.282Z,97234.44
2018-05-12T12:01:43.922Z,97237.63
2018-05-12T12:04:11.457Z,97233.05
2018-05-12T12:06:39.038Z,97235.88
2018-05-12T12:09:06.606Z,97225.50
2018-05-12T12:11:34.170Z,97222.63
2018-05-12T12:14:02.150Z,97223.80
2018-05-12T12:16:30.005Z,97222.57
2018-05-12T12:18:57.537Z,97193.64
2018-05-12T12:21:25.070Z,97210.59
2018-05-12T12:23:52.650Z,97208.23
2018-05-12T12:26:20.354Z,97210.20
2018-05-12T12:28:48.700Z,97204.11
2018-05-12T12:31:16.250Z,97204.04
2018-05-12T12:33:43.741Z,97206.42
2018-05-12T12:36:11.285Z,97197.47
2018-05-12T12:41:04.657Z,97201.28
2018-05-12T12:43:32.212Z,97181.22
2018-05-12T12:45:59.729Z,97185.15
2018-05-12T12:48:27.320Z,97186.28
2018-05-12T12:50:54.871Z,97183.27
2018-05-12T12:53:22.412Z,97180.19
2018-05-12T12:55:49.979Z,97178.50
2018-05-12T12:58:17.551Z,97049.52
2018-05-12T13:00:45.158Z,97169.65
2018-05-12T13:03:12.751Z,97063.47
2018-05-12T13:05:40.274Z,97167.50
2018-05-12T13:08:07.779Z,97159.63
2018-05-12T13:10:35.351Z,97152.04
2018-05-12T13:13:02.877Z,97151.48
2018-05-12T13:15:30.464Z,97143.27
2018-05-12T13:17:58.030Z,97142.20
2018-05-12T13:20:25.558Z,97143.82
2018-05-12T13:22:53.095Z,97143.36
2018-05-12T13:25:20.647Z,97130.90
2018-05-12T13:27:48.174Z,97137.48
2018-05-12T13:30:15.699Z,97131.87
2018-05-12T13:32:43.217Z,97127.78
2018-05-12T13:35:10.711Z,97124.18
2018-05-12T13:37:38.241Z,97120.31
2018-05-12T13:40:05.757Z,97119.86
2018-05-12T13:42:33.237Z,97118.41
2018-05-12T13:45:00.726Z,97111.31
2018-05-12T13:47:28.239Z,97107.96
2018-05-12T13:49:55.721Z,97105.37
2018-05-12T13:52:23.210Z,97095.66
2018-05-12T13:54:50.734Z,97095.26
2018-05-12T13:57:18.220Z,97093.07
2018-05-12T13:59:45.707Z,97096.84
2018-05-12T14:02:13.226Z,97094.22
2018-05-12T14:04:40.713Z,97085.80
2018-05-12T14:07:08.210Z,97086.23
2018-05-12T14:09:36.692Z,97078.94
2018-05-12T14:12:04.181Z,97095.08
2018-05-12T14:14:31.670Z,97082.14
2018-05-12T14:16:59.186Z,97073.17
2018-05-12T14:19:26.687Z,97064.59
2018-05-12T14:21:54.191Z,97059.59
2018-05-12T14:24:21.730Z,97060.39
2018-05-12T14:26:49.227Z,97057.05
2018-05-12T14:29:16.719Z,97064.23
2018-05-12T14:31:44.240Z,97064.66
2018-05-12T14:34:11.724Z,97054.05
2018-05-12T14:36:39.214Z,97053.20
2018-05-12T14:39:06.731Z,97061.36
2018-05-12T14:41:34.217Z,97055.28
2018-05-12T14:44:01.705Z,97055.76
2018-05-12T14:46:29.302Z,97052.70
2018-05-12T14:48:56.729Z,97048.38
2018-05-12T14:51:24.214Z,97045.94
2018-05-12T14:53:51.730Z,97047.78
2018-05-12T14:56:19.213Z,97043.27
2018-05-12T14:58:46.693Z,97029.60
2018-05-12T15:01:14.207Z,97030.91
2018-05-12T15:03:41.709Z,97030.44
2018-05-12T15:06:09.257Z,97015.42
2018-05-12T15:08:36.775Z,97025.59
2018-05-12T15:11:04.261Z,97019.67
2018-05-12T15:13:31.757Z,96999.55
2018-05-12T15:15:59.274Z,97006.41
2018-05-12T15:18:26.770Z,97008.13
2018-05-12T15:20:54.287Z,97009.86
2018-05-12T15:23:21.798Z,97011.14
2018-05-12T15:25:49.285Z,97003.80
2018-05-12T15:28:16.774Z,97005.44
2018-05-12T15:30:44.290Z,96997.78
2018-05-12T15:33:11.778Z,96977.99
2018-05-12T15:35:39.266Z,96999.16
2018-05-12T15:38:06.782Z,96984.91
2018-05-12T15:40:34.275Z,96987.41
2018-05-12T15:43:01.776Z,96983.52
2018-05-12T15:45:29.291Z,96984.00
2018-05-12T15:47:56.776Z,96986.19
2018-05-12T15:50:24.266Z,96983.61
2018-05-12T15:52:51.786Z,96979.75
2018-05-12T15:55:19.265Z,96980.59
2018-05-12T15:57:46.758Z,96974.50
2018-05-12T16:00:14.275Z,96976.77
2018-05-12T16:02:41.771Z,96971.09
2018-05-12T16:05:09.309Z,96968.55
2018-05-12T16:07:36.827Z,96972.45
2018-05-12T16:10:04.317Z,96970.70
2018-05-12T16:12:31.801Z,96969.85
2018-05-12T16:14:59.314Z,96971.64
2018-05-12T16:17:26.793Z,96965.55
2018-05-12T16:19:54.278Z,96962.19
2018-05-12T16:22:21.795Z,96961.31
2018-05-12T16:24:49.284Z,96965.97
2018-05-12T16:27:16.774Z,96961.67
2018-05-12T16:29:44.295Z,96962.60
2018-05-12T16:32:11.782Z,96962.97
2018-05-12T16:34:39.275Z,96965.16
2018-05-12T16:37:06.785Z,96957.82
2018-05-12T16:39:34.351Z,96953.92
2018-05-12T16:42:01.843Z,96953.91
2018-05-12T16:44:29.396Z,96966.32
2018-05-12T16:46:56.874Z,96963.28
2018-05-12T16:49:24.356Z,96960.63
2018-05-12T16:51:51.876Z,96960.59
2018-05-12T16:54:19.386Z,96950.69
2018-05-12T16:56:47.229Z,96958.39
2018-05-12T16:59:14.771Z,96965.22
2018-05-12T17:01:42.274Z,96964.73
2018-05-12T17:04:09.787Z,96956.56
2018-05-12T17:06:37.314Z,96955.34
2018-05-12T17:09:05.755Z,96963.00
2018-05-12T17:11:33.241Z,96950.58
2018-05-12T17:14:00.760Z,96944.52
2018-05-12T17:16:28.253Z,96957.31
2018-05-12T17:18:55.747Z,96961.98
2018-05-12T17:21:23.269Z,96963.28
2018-05-12T17:23:50.762Z,96961.95
2018-05-12T17:26:18.253Z,96958.55
2018-05-12T17:28:45.785Z,96950.71
2018-05-12T17:31:13.273Z,96954.90
2018-05-12T17:33:40.767Z,96953.59
2018-05-12T17:36:08.278Z,96954.39
2018-05-12T17:38:35.780Z,96955.62
2018-05-12T17:41:03.270Z,96955.16
2018-05-12T17:43:30.799Z,96955.11
2018-05-12T17:45:58.295Z,96955.07
2018-05-12T17:48:25.787Z,96959.28
2018-05-12T17:50:53.315Z,96967.37
2018-05-12T17:53:20.819Z,96962.13
2018-05-12T17:55:48.391Z,96956.42
2018-05-12T17:58:15.844Z,96962.31
2018-05-12T18:00:43.338Z,96961.83
2018-05-12T18:03:10.830Z,96956.23
2018-05-12T18:05:38.361Z,96957.44
2018-05-12T18:08:05.860Z,96966.76
2018-05-12T18:10:33.349Z,96964.12
2018-05-12T18:13:00.867Z,96969.96
2018-05-12T18:15:28.350Z,96960.88
2018-05-12T18:17:55.849Z,96954.86
2018-05-12T18:20:23.367Z,96959.05
2018-05-12T18:22:50.922Z,96967.41
2018-05-12T18:25:18.423Z,96941.54
2018-05-12T18:27:45.943Z,96959.94
2018-05-12T18:30:13.424Z,96967.95
2018-05-12T18:32:40.913Z,96965.61
2018-05-12T18:35:08.426Z,96967.63
2018-05-12T18:37:35.918Z,96968.45
2018-05-12T18:40:03.421Z,96959.33
2018-05-12T18:42:30.952Z,96962.95
2018-05-12T18:44:58.452Z,96970.37
2018-05-12T18:47:25.941Z,96971.03
2018-05-12T18:49:54.426Z,96964.05
2018-05-12T18:52:22.058Z,96968.58
2018-05-12T18:54:49.599Z,96969.22
2018-05-12T18:57:17.175Z,96975.62
2018-05-12T18:59:44.706Z,96979.63
2018-05-12T19:02:12.289Z,96978.23
2018-05-12T19:04:39.825Z,96982.02
2018-05-12T19:07:07.388Z,96978.55
2018-05-12T19:09:34.986Z,96974.59
2018-05-12T19:12:02.550Z,96984.13
2018-05-12T19:14:30.094Z,96982.79
2018-05-12T19:16:57.674Z,96991.92
2018-05-12T19:19:25.264Z,96968.59
2018-05-12T19:21:52.777Z,96992.03
2018-05-12T19:24:20.289Z,96995.83
2018-05-12T19:26:47.842Z,96986.75
2018-05-12T19:29:15.443Z,96982.91
2018-05-12T19:31:42.994Z,96992.22
2018-05-12T19:34:10.569Z,96988.25
2018-05-12T19:36:38.099Z,96990.70
2018-05-12T19:39:05.631Z,96984.68
2018-05-12T19:41:33.178Z,96980.70
2018-05-12T19:44:00.717Z,96984.43
2018-05-12T19:46:28.221Z,96980.92
2018-05-12T19:48:55.786Z,96975.16
2018-05-12T19:51:23.337Z,96981.55
2018-05-12T19:53:50.858Z,96981.84
2018-05-12T19:56:18.429Z,96978.66
2018-05-12T19:58:45.983Z,96976.28
2018-05-12T20:01:13.621Z,96975.29
2018-05-12T20:03:41.209Z,96976.01
2018-05-12T20:06:08.764Z,96975.10
2018-05-12T20:08:36.322Z,96976.58
2018-05-12T20:11:03.892Z,96982.91
2018-05-12T20:13:31.488Z,96982.11
2018-05-12T20:15:59.110Z,96980.16
2018-05-12T20:18:26.653Z,96982.20
2018-05-12T20:20:54.514Z,96984.95
2018-05-12T20:23:22.055Z,96984.34
2018-05-12T20:25:49.938Z,96984.22
2018-05-12T20:28:17.594Z,96980.95
2018-05-12T20:30:45.412Z,96993.38
2018-05-12T20:33:12.972Z,96982.86
2018-05-12T20:35:40.504Z,96985.45
2018-05-12T20:38:08.013Z,96982.73
2018-05-12T20:40:35.590Z,96976.77
2018-05-12T20:43:03.152Z,96980.15
2018-05-12T20:45:30.710Z,96985.13
2018-05-12T20:47:58.269Z,96983.20
2018-05-12T20:50:25.801Z,96984.11
2018-05-12T20:52:53.324Z,96980.56
2018-05-12T20:55:20.840Z,96987.07
2018-05-12T20:57:49.636Z,96976.44
2018-05-12T21:00:17.207Z,96978.28
2018-05-12T21:02:45.238Z,96977.14
2018-05-12T21:05:12.742Z,96976.70
2018-05-12T21:07:40.263Z,96977.05
2018-05-12T21:10:07.822Z,96969.32
2018-05-12T21:12:35.354Z,96968.97
2018-05-12T21:15:02.952Z,96967.00
2018-05-12T21:17:30.722Z,96969.37
2018-05-12T21:19:58.239Z,96970.25
2018-05-12T21:22:25.762Z,96967.83
2018-05-12T21:24:53.289Z,96976.55
2018-05-12T21:27:20.811Z,96980.81
2018-05-12T21:29:48.356Z,96984.45
2018-05-12T21:32:15.965Z,96980.58
2018-05-12T21:34:43.492Z,96979.91
2018-05-12T21:37:11.042Z,96980.20
2018-05-12T21:39:38.678Z,96978.62
2018-05-12T21:42:06.188Z,96978.48
2018-05-12T21:44:33.719Z,96972.42
2018-05-12T21:47:01.297Z,96981.23
2018-05-12T21:49:28.796Z,96978.69
2018-05-12T21:51:56.318Z,96985.45
2018-05-12T21:54:23.845Z,96980.59
2018-05-12T21:56:51.334Z,96978.36
2018-05-12T21:59:18.858Z,96981.28
2018-05-12T22:01:46.394Z,96986.77
2018-05-12T22:04:13.910Z,96982.36
2018-05-12T22:06:41.425Z,96986.72
2018-05-12T22:09:08.986Z,96983.37
2018-05-12T22:11:36.522Z,96992.00
2018-05-12T22:14:04.067Z,96986.97
2018-05-12T22:16:31.593Z,96985.59
2018-05-12T22:18:59.098Z,96991.01
2018-05-12T22:21:26.638Z,96987.09
2018-05-12T22:23:54.206Z,96983.63
2018-05-12T22:26:21.767Z,96982.34
2018-05-12T22:28:49.314Z,96978.81
2018-05-12T22:31:16.849Z,96977.45
2018-05-12T22:33:44.359Z,96976.18
2018-05-12T22:36:11.864Z,96970.99
2018-05-12T22:38:39.448Z,96972.27
2018-05-12T22:41:06.990Z,96972.59
2018-05-12T22:43:34.493Z,96972.44
2018-05-12T22:46:02.059Z,96968.57
2018-05-12T22:48:29.579Z,96968.65
2018-05-12T22:50:57.127Z,96970.88
2018-05-12T22:53:24.688Z,96964.97
2018-05-12T22:55:52.215Z,96960.40
2018-05-12T22:58:20.371Z,96967.08
2018-05-12T23:00:47.922Z,96956.52
2018-05-12T23:03:15.470Z,96961.11
2018-05-12T23:05:43.036Z,96946.37
2018-05-12T23:08:10.612Z,96947.97
2018-05-12T23:10:38.148Z,96949.47
2018-05-12T23:13:05.685Z,96948.02
2018-05-12T23:15:33.263Z,96942.78
2018-05-12T23:18:00.801Z,96942.02
2018-05-12T23:20:28.311Z,96938.59
2018-05-12T23:22:55.858Z,96932.92
2018-05-12T23:25:23.415Z,96936.24
2018-05-12T23:27:50.936Z,96934.05
2018-05-12T23:30:18.509Z,96935.14
2018-05-12T23:32:46.055Z,96934.30
2018-05-12T23:35:13.586Z,96938.60
2018-05-12T23:37:41.150Z,96937.01
2018-05-12T23:40:08.658Z,96937.41
2018-05-12T23:42:36.180Z,96939.00
2018-05-12T23:45:03.738Z,96937.23
2018-05-12T23:47:31.259Z,96935.02
2018-05-12T23:49:58.778Z,96942.09
2018-05-12T23:52:26.299Z,96934.45
2018-05-12T23:54:53.781Z,96926.33
2018-05-12T23:57:21.299Z,96924.78
2018-05-12T23:59:48.871Z,96925.87
